Siemreap, Cambodia

7:16 AM ICT on February 15, 2016 (GMT +0700)
Siem Reap | | Change Station
CLOSE
Current Station
Airport
Location: Siemreap,
Elevation: 49 ft
Nearby Weather Stations

Elev 49 ft 13.37 °N, 103.85 °E | Updated 16 minutes ago

Partly Cloudy
Partly Cloudy
75 °F
Feels Like 75 °F
N
1
Wind Variable Wind from ESE

Today
High -- | Low -- °F
--% Chance of Precip.
Yesterday
High -- | Low -- °F
Precip. -- in
Pressure 29.92 in
Visibility 4.3 miles
Clouds Few 1800 ft
Dew Point 73 °F
Humidity 94%
Rainfall 0.00 in
Snow Depth Not available.
6:28 AM 6:10 PM
Waxing Crescent, 47% visible
METAR VDSR 150000Z 11001KT 7000 FEW018 24/23 Q1013
Pressure 29.92 in
Visibility 4.3 miles
Clouds Few 1800 ft
Dew Point 73 °F
Humidity 94%
Rainfall 0.00 in
Snow Depth Not available.
6:28 AM 6:10 PM
Waxing Crescent, 47% visible
METAR VDSR 150000Z 11001KT 7000 FEW018 24/23 Q1013

10-Day Weather Forecast

No radar image for this location.
×

Almanac

Astronomy

Feb. 15, 2016 Rise Set
Actual Time
Civil Twilight
Nautical Twilight
Astronomical Twilight
Moon
Length of Visible Light
Length of Day
Tomorrow will be .
, % of the Moon is Illuminated

Today's Extremes

Country Highs Country Lows

Community

WunderPhotos

Upload Photos

1,892,938 photos uploaded!

WunderBlog® & News

Nearby

Air Quality

  Air Quality AQ Index Pollutant
Not available.

Snow Depth

Station Depth Elevation

Earthquake Activity

City Distance Mag. Time & Date
Minimum magnitude displayed is 2.5.

Coastal Water Temperatures

Place Temperature

Stations

Nearby Weather Stations

Station Location Temp. Windchill Dew Point Humidity Wind Precip. Elev Updated Type